Aérodrome :
LOGIN :

S'inscrire | Disclaimer

   EN    FR    IT 

 










Légende :    VFR   VFR Marginal   IFR   IFR Intensif   IFR Très Intensif
Visi : 
Plafond : 
>= 8 km
>= 3000ft
5 à 8 km
1000 à 3000 ft
1500m à 5 km
500 à 1000 ft
800 à 1500m
200 à 500 ft
< 800m
< 200 ft
Symboles :   Orages  Brouillard  Fortes neiges  Fortes précipitations  Vent > 20 kt
SIGMETs :   Divers  Orages  Givrage  Turbulence  Onde Orograph.  Cendres Volcan.






- Altitude de l'aérodrome : 187 ft


ETNW - Wunstorf AB

DERNIER METAR :
  • 301142Z 28020G35KT 9999 -SHRA SCT020CB BKN023 BKN050 06/03 Q1009 WHT BLU TEMPO YLO

METARs EXPIRÉS :
  • 301120Z 30015KT 9999 -SHRA FEW018 SCT020CB BKN050 05/03 Q1009 BLU BLU TEMPO YLO
  • 301114Z 29017KT 9999 -SHRAGS FEW018 SCT020CB BKN050 05/03 Q1009 BLU BLU TEMPO YLO
  • 301020Z 28022G32KT 9999 -SHRA FEW020 SCT024 BKN050 06/02 Q1009 BLU BLU TEMPO YLO
  • 300920Z 28018KT 9999 FEW021 BKN023 06/02 Q1009 WHT BLU TEMPO YLO

TAF TAF ETNW
Valide du 30 à 06h jusqu'au 31 à 06h UTC


300521Z 3006/3106 25015G25KT 5000 -DZRA BKN010
BECMG 3006/3008 27015G30KT 9999 NSW SCT020 BKN025
TEMPO 3008/3018 29020G35KT 3000 SHRAGS BKN012CB
PROB30 3010/3016 30025G40KT 1000 TSGS BKN008CB
BECMG 3017/3019 29015G25KT 9999 NSW SCT025 BKN040
BECMG 3023/3101 27010G20KT 9999 NSW SCT030 BKN050 BY ETGL



MET'MAP, la Météo Aéronautique d'un coup d'oeil ! - Copyright ORBIFLY Décembre 2007 - Disclaimer

ORBIFLY MET'MAP TEAM :

Programmation & Développement : Alexandra Zaïnal
Sur une idée originale de : Baudouin d'Aumeries
Soutien technique & logistique : Manuel Goepfert
Assistance : Marc-Olivier Méhu




SOURCES & CREDITS :

   NOAA